sensor_id;sensor_type;location;lat;lon;timestamp;pressure;altitude;pressure_sealevel;temperature;humidity
46412;BME280;32113;42.012;24.870;2023-03-03T00:00:41;99327.50;;;6.87;84.26
46412;BME280;32113;42.012;24.870;2023-03-03T00:03:08;99323.22;;;6.82;82.92
46412;BME280;32113;42.012;24.870;2023-03-03T00:05:34;99322.41;;;6.88;82.66
46412;BME280;32113;42.012;24.870;2023-03-03T00:08:00;99321.59;;;6.94;82.95
46412;BME280;32113;42.012;24.870;2023-03-03T00:10:26;99313.97;;;6.97;82.05
46412;BME280;32113;42.012;24.870;2023-03-03T00:12:51;99302.16;;;7.10;82.43
46412;BME280;32113;42.012;24.870;2023-03-03T00:15:21;99297.13;;;7.18;80.46
46412;BME280;32113;42.012;24.870;2023-03-03T00:17:47;99289.53;;;7.24;80.44
46412;BME280;32113;42.012;24.870;2023-03-03T00:23:16;99287.91;;;7.35;79.75
46412;BME280;32113;42.012;24.870;2023-03-03T00:25:44;99277.72;;;7.39;78.86
46412;BME280;32113;42.012;24.870;2023-03-03T00:30:41;99275.16;;;7.37;77.90
46412;BME280;32113;42.012;24.870;2023-03-03T00:33:33;99267.50;;;7.40;77.44
46412;BME280;32113;42.012;24.870;2023-03-03T00:38:40;99259.03;;;7.44;77.62
46412;BME280;32113;42.012;24.870;2023-03-03T00:41:26;99259.03;;;7.44;78.18
46412;BME280;32113;42.012;24.870;2023-03-03T00:43:52;99257.34;;;7.51;77.35
46412;BME280;32113;42.012;24.870;2023-03-03T00:46:19;99255.69;;;7.55;76.97
46412;BME280;32113;42.012;24.870;2023-03-03T00:48:46;99259.06;;;7.51;75.57
46412;BME280;32113;42.012;24.870;2023-03-03T00:51:27;99249.50;;;7.18;76.11
46412;BME280;32113;42.012;24.870;2023-03-03T00:53:54;99244.38;;;7.12;76.96
46412;BME280;32113;42.012;24.870;2023-03-03T00:56:19;99235.69;;;6.91;77.69
46412;BME280;32113;42.012;24.870;2023-03-03T00:58:45;99242.50;;;6.89;77.41
46412;BME280;32113;42.012;24.870;2023-03-03T01:01:12;99235.72;;;6.94;77.68
46412;BME280;32113;42.012;24.870;2023-03-03T01:03:38;99233.13;;;6.90;78.18
46412;BME280;32113;42.012;24.870;2023-03-03T01:06:04;99229.66;;;6.80;78.26
46412;BME280;32113;42.012;24.870;2023-03-03T01:08:29;99232.25;;;6.84;79.02
46412;BME280;32113;42.012;24.870;2023-03-03T01:10:56;99233.88;;;6.78;79.10
46412;BME280;32113;42.012;24.870;2023-03-03T01:13:26;99231.28;;;6.70;78.86
46412;BME280;32113;42.012;24.870;2023-03-03T01:15:52;99227.91;;;6.74;79.67
46412;BME280;32113;42.012;24.870;2023-03-03T01:18:18;99228.78;;;6.78;79.30
46412;BME280;32113;42.012;24.870;2023-03-03T01:20:43;99230.59;;;6.88;78.89
46412;BME280;32113;42.012;24.870;2023-03-03T01:23:09;99231.53;;;7.01;78.33
46412;BME280;32113;42.012;24.870;2023-03-03T01:25:35;99240.00;;;6.99;76.92
46412;BME280;32113;42.012;24.870;2023-03-03T01:28:00;99237.47;;;6.99;76.81
46412;BME280;32113;42.012;24.870;2023-03-03T01:30:26;99235.78;;;7.04;76.54
46412;BME280;32113;42.012;24.870;2023-03-03T01:32:52;99233.22;;;7.02;76.39
46412;BME280;32113;42.012;24.870;2023-03-03T01:35:18;99235.00;;;7.09;76.49
46412;BME280;32113;42.012;24.870;2023-03-03T01:37:43;99229.91;;;7.16;75.58
46412;BME280;32113;42.012;24.870;2023-03-03T01:40:19;99230.00;;;7.28;75.99
46412;BME280;32113;42.012;24.870;2023-03-03T01:42:44;99229.22;;;7.39;73.99
46412;BME280;32113;42.012;24.870;2023-03-03T01:45:17;99223.28;;;7.43;74.70
46412;BME280;32113;42.012;24.870;2023-03-03T01:47:54;99226.72;;;7.48;74.19
46412;BME280;32113;42.012;24.870;2023-03-03T01:50:29;99221.59;;;7.48;74.07
46412;BME280;32113;42.012;24.870;2023-03-03T01:52:58;99230.13;;;7.58;74.02
46412;BME280;32113;42.012;24.870;2023-03-03T01:55:25;99219.06;;;7.48;73.60
46412;BME280;32113;42.012;24.870;2023-03-03T01:58:10;99213.03;;;7.40;74.67
46412;BME280;32113;42.012;24.870;2023-03-03T02:00:38;99211.28;;;7.32;74.27
46412;BME280;32113;42.012;24.870;2023-03-03T02:03:05;99216.34;;;7.25;74.32
46412;BME280;32113;42.012;24.870;2023-03-03T02:05:31;99198.53;;;7.34;74.92
46412;BME280;32113;42.012;24.870;2023-03-03T02:07:58;99209.66;;;7.44;74.93
46412;BME280;32113;42.012;24.870;2023-03-03T02:10:23;99207.06;;;7.39;73.81
46412;BME280;32113;42.012;24.870;2023-03-03T02:12:52;99207.91;;;7.36;74.18
46412;BME280;32113;42.012;24.870;2023-03-03T02:15:30;99205.31;;;7.29;74.70
46412;BME280;32113;42.012;24.870;2023-03-03T02:18:05;99197.69;;;7.36;74.62
46412;BME280;32113;42.012;24.870;2023-03-03T02:26:27;99203.56;;;7.17;73.94
46412;BME280;32113;42.012;24.870;2023-03-03T02:28:53;99206.97;;;7.20;74.95
46412;BME280;32113;42.012;24.870;2023-03-03T02:31:21;99204.41;;;7.20;74.05
46412;BME280;32113;42.012;24.870;2023-03-03T02:33:49;99203.59;;;7.25;75.15
46412;BME280;32113;42.012;24.870;2023-03-03T02:36:20;99205.34;;;7.32;74.79
46412;BME280;32113;42.012;24.870;2023-03-03T02:44:01;99201.09;;;7.34;73.77
46412;BME280;32113;42.012;24.870;2023-03-03T02:46:40;99202.66;;;7.07;74.28
46412;BME280;32113;42.012;24.870;2023-03-03T02:49:08;99211.22;;;7.14;74.64
46412;BME280;32113;42.012;24.870;2023-03-03T02:51:35;99207.78;;;7.13;75.02
46412;BME280;32113;42.012;24.870;2023-03-03T02:54:00;99197.59;;;7.18;74.84
46412;BME280;32113;42.012;24.870;2023-03-03T02:56:26;99202.69;;;7.15;74.64
46412;BME280;32113;42.012;24.870;2023-03-03T02:58:51;99204.38;;;7.14;74.72
46412;BME280;32113;42.012;24.870;2023-03-03T03:01:17;99202.78;;;7.29;75.36
46412;BME280;32113;42.012;24.870;2023-03-03T03:03:42;99195.13;;;7.30;74.30
46412;BME280;32113;42.012;24.870;2023-03-03T03:06:08;99195.94;;;7.25;74.32
46412;BME280;32113;42.012;24.870;2023-03-03T03:08:33;99204.44;;;7.22;74.66
46412;BME280;32113;42.012;24.870;2023-03-03T03:10:59;99193.44;;;7.31;74.31
46412;BME280;32113;42.012;24.870;2023-03-03T03:13:24;99194.31;;;7.38;74.63
46412;BME280;32113;42.012;24.870;2023-03-03T03:15:50;99185.75;;;7.26;73.87
46412;BME280;32113;42.012;24.870;2023-03-03T03:18:16;99188.34;;;7.31;73.55
46412;BME280;32113;42.012;24.870;2023-03-03T03:20:42;99189.19;;;7.34;73.82
46412;BME280;32113;42.012;24.870;2023-03-03T03:23:08;99190.09;;;7.49;73.75
46412;BME280;32113;42.012;24.870;2023-03-03T03:25:34;99185.75;;;7.26;73.09
46412;BME280;32113;42.012;24.870;2023-03-03T03:28:02;99189.94;;;7.18;73.56
46412;BME280;32113;42.012;24.870;2023-03-03T03:30:27;99186.53;;;7.16;73.44
46412;BME280;32113;42.012;24.870;2023-03-03T03:32:53;99183.16;;;7.23;73.80
46412;BME280;32113;42.012;24.870;2023-03-03T03:35:18;99186.66;;;7.36;73.44
46412;BME280;32113;42.012;24.870;2023-03-03T03:37:43;99185.84;;;7.45;73.21
46412;BME280;32113;42.012;24.870;2023-03-03T03:40:10;99189.19;;;7.34;72.27
46412;BME280;32113;42.012;24.870;2023-03-03T03:42:36;99187.56;;;7.44;72.81
46412;BME280;32113;42.012;24.870;2023-03-03T03:45:03;99183.31;;;7.53;73.47
46412;BME280;32113;42.012;24.870;2023-03-03T03:47:28;99190.13;;;7.52;71.95
46412;BME280;32113;42.012;24.870;2023-03-03T03:49:54;99185.88;;;7.60;71.61
46412;BME280;32113;42.012;24.870;2023-03-03T03:52:19;99187.66;;;7.69;71.96
46412;BME280;32113;42.012;24.870;2023-03-03T03:54:44;99186.78;;;7.66;70.90
46412;BME280;32113;42.012;24.870;2023-03-03T03:57:10;99186.78;;;7.66;71.04
46412;BME280;32113;42.012;24.870;2023-03-03T03:59:35;99184.19;;;7.59;70.89
46412;BME280;32113;42.012;24.870;2023-03-03T04:02:00;99184.22;;;7.66;72.37
46412;BME280;32113;42.012;24.870;2023-03-03T04:04:26;99186.81;;;7.72;71.34
46412;BME280;32113;42.012;24.870;2023-03-03T04:06:51;99185.13;;;7.80;71.48
46412;BME280;32113;42.012;24.870;2023-03-03T04:09:17;99184.28;;;7.89;70.69
46412;BME280;32113;42.012;24.870;2023-03-03T04:11:42;99180.06;;;7.99;71.11
46412;BME280;32113;42.012;24.870;2023-03-03T04:14:07;99181.78;;;8.08;69.90
46412;BME280;32113;42.012;24.870;2023-03-03T04:16:33;99182.63;;;8.10;69.50
46412;BME280;32113;42.012;24.870;2023-03-03T04:18:58;99186.91;;;8.17;69.03
46412;BME280;32113;42.012;24.870;2023-03-03T04:21:24;99180.09;;;8.22;68.86
46412;BME280;32113;42.012;24.870;2023-03-03T04:23:50;99178.41;;;8.23;68.92
46412;BME280;32113;42.012;24.870;2023-03-03T04:26:15;99171.59;;;8.34;67.45
46412;BME280;32113;42.012;24.870;2023-03-03T04:28:41;99173.28;;;8.37;66.89
46412;BME280;32113;42.012;24.870;2023-03-03T04:31:06;99171.59;;;8.39;67.15
46412;BME280;32113;42.012;24.870;2023-03-03T04:33:32;99164.78;;;8.36;67.65
46412;BME280;32113;42.012;24.870;2023-03-03T04:35:57;99165.63;;;8.37;68.38
46412;BME280;32113;42.012;24.870;2023-03-03T04:38:23;99175.00;;;8.39;68.96
46412;BME280;32113;42.012;24.870;2023-03-03T04:40:48;99179.25;;;8.42;67.47
46412;BME280;32113;42.012;24.870;2023-03-03T04:43:14;99171.59;;;8.39;67.50
46412;BME280;32113;42.012;24.870;2023-03-03T04:45:39;99178.41;;;8.45;67.61
46412;BME280;32113;42.012;24.870;2023-03-03T04:48:05;99176.72;;;8.44;68.11
46412;BME280;32113;42.012;24.870;2023-03-03T04:50:30;99175.00;;;8.49;66.82
46412;BME280;32113;42.012;24.870;2023-03-03T04:52:56;99171.59;;;8.51;66.21
46412;BME280;32113;42.012;24.870;2023-03-03T04:55:21;99172.47;;;8.52;66.56
46412;BME280;32113;42.012;24.870;2023-03-03T04:57:46;99171.63;;;8.54;66.37
46412;BME280;32113;42.012;24.870;2023-03-03T05:00:12;99173.31;;;8.54;66.14
46412;BME280;32113;42.012;24.870;2023-03-03T05:02:39;99171.63;;;8.54;66.16
46412;BME280;32113;42.012;24.870;2023-03-03T05:05:05;99175.91;;;8.57;66.10
46412;BME280;32113;42.012;24.870;2023-03-03T05:07:31;99182.69;;;8.57;66.12
46412;BME280;32113;42.012;24.870;2023-03-03T05:09:57;99183.56;;;8.57;66.42
46412;BME280;32113;42.012;24.870;2023-03-03T05:12:22;99181.84;;;8.53;66.66
46412;BME280;32113;42.012;24.870;2023-03-03T05:14:47;99182.69;;;8.52;66.63
46412;BME280;32113;42.012;24.870;2023-03-03T05:17:13;99186.97;;;8.56;67.43
46412;BME280;32113;42.012;24.870;2023-03-03T05:19:39;99186.13;;;8.56;68.15
46412;BME280;32113;42.012;24.870;2023-03-03T05:22:04;99186.97;;;8.59;68.28
46412;BME280;32113;42.012;24.870;2023-03-03T05:24:30;99180.16;;;8.60;69.17
46412;BME280;32113;42.012;24.870;2023-03-03T05:26:55;99188.69;;;8.56;69.48
46412;BME280;32113;42.012;24.870;2023-03-03T05:29:20;99194.66;;;8.58;70.25
46412;BME280;32113;42.012;24.870;2023-03-03T05:31:46;99186.97;;;8.59;70.44
46412;BME280;32113;42.012;24.870;2023-03-03T05:34:11;99192.06;;;8.59;70.74
46412;BME280;32113;42.012;24.870;2023-03-03T05:36:37;99181.00;;;8.54;71.24
46412;BME280;32113;42.012;24.870;2023-03-03T05:39:03;99189.53;;;8.59;70.93
46412;BME280;32113;42.012;24.870;2023-03-03T05:41:28;99192.06;;;8.51;70.87
46412;BME280;32113;42.012;24.870;2023-03-03T05:43:54;99195.47;;;8.49;70.88
46412;BME280;32113;42.012;24.870;2023-03-03T05:46:19;99191.19;;;8.48;71.19
46412;BME280;32113;42.012;24.870;2023-03-03T05:48:46;99190.34;;;8.49;70.94
46412;BME280;32113;42.012;24.870;2023-03-03T05:51:11;99200.56;;;8.39;72.45
46412;BME280;32113;42.012;24.870;2023-03-03T05:53:37;99197.16;;;8.50;72.04
46412;BME280;32113;42.012;24.870;2023-03-03T05:56:02;99192.09;;;8.53;71.44
46412;BME280;32113;42.012;24.870;2023-03-03T05:58:28;99194.66;;;8.53;71.93
46412;BME280;32113;42.012;24.870;2023-03-03T06:00:53;99192.97;;;8.55;71.68
46412;BME280;32113;42.012;24.870;2023-03-03T06:03:19;99198.06;;;8.63;71.93
46412;BME280;32113;42.012;24.870;2023-03-03T06:05:44;99194.66;;;8.54;72.34
46412;BME280;32113;42.012;24.870;2023-03-03T06:08:10;99202.31;;;8.56;72.77
46412;BME280;32113;42.012;24.870;2023-03-03T06:10:35;99194.63;;;8.59;71.88
46412;BME280;32113;42.012;24.870;2023-03-03T06:13:00;99198.91;;;8.52;71.63
46412;BME280;32113;42.012;24.870;2023-03-03T06:15:26;99199.75;;;8.53;72.28
46412;BME280;32113;42.012;24.870;2023-03-03T06:17:51;99202.31;;;8.53;72.41
46412;BME280;32113;42.012;24.870;2023-03-03T06:20:17;99204.00;;;8.54;71.63
46412;BME280;32113;42.012;24.870;2023-03-03T06:22:42;99212.56;;;8.64;71.47
46412;BME280;32113;42.012;24.870;2023-03-03T06:25:08;99210.00;;;8.56;72.13
46412;BME280;32113;42.012;24.870;2023-03-03T06:27:33;99205.75;;;8.63;72.20
46412;BME280;32113;42.012;24.870;2023-03-03T06:29:59;99206.56;;;8.63;72.32
46412;BME280;32113;42.012;24.870;2023-03-03T06:32:24;99209.16;;;8.60;72.88
46412;BME280;32113;42.012;24.870;2023-03-03T06:34:50;99204.88;;;8.62;72.46
46412;BME280;32113;42.012;24.870;2023-03-03T06:37:15;99206.56;;;8.63;73.20
46412;BME280;32113;42.012;24.870;2023-03-03T06:39:41;99213.41;;;8.63;72.82
46412;BME280;32113;42.012;24.870;2023-03-03T06:42:06;99217.66;;;8.64;73.08
46412;BME280;32113;42.012;24.870;2023-03-03T06:44:34;99216.81;;;8.57;73.58
46412;BME280;32113;42.012;24.870;2023-03-03T06:46:59;99215.13;;;8.65;73.54
46412;BME280;32113;42.012;24.870;2023-03-03T06:49:25;99219.38;;;8.68;73.33
46412;BME280;32113;42.012;24.870;2023-03-03T06:51:50;99213.41;;;8.67;73.32
46412;BME280;32113;42.012;24.870;2023-03-03T06:54:18;99221.09;;;8.74;72.92
46412;BME280;32113;42.012;24.870;2023-03-03T06:56:44;99218.50;;;8.67;73.16
46412;BME280;32113;42.012;24.870;2023-03-03T06:59:14;99221.09;;;8.71;72.60
46412;BME280;32113;42.012;24.870;2023-03-03T07:01:41;99217.66;;;8.64;72.61
46412;BME280;32113;42.012;24.870;2023-03-03T07:06:38;99215.09;;;8.70;72.54
46412;BME280;32113;42.012;24.870;2023-03-03T07:09:10;99217.69;;;8.75;72.62
46412;BME280;32113;42.012;24.870;2023-03-03T07:11:39;99217.66;;;8.72;71.67
46412;BME280;32113;42.012;24.870;2023-03-03T07:14:13;99215.09;;;8.68;71.85
46412;BME280;32113;42.012;24.870;2023-03-03T07:16:39;99212.56;;;8.75;71.38
46412;BME280;32113;42.012;24.870;2023-03-03T07:19:16;99216.81;;;8.74;71.14
46412;BME280;32113;42.012;24.870;2023-03-03T07:21:43;99215.09;;;8.78;70.60
46412;BME280;32113;42.012;24.870;2023-03-03T07:24:15;99213.41;;;8.78;70.38
46412;BME280;32113;42.012;24.870;2023-03-03T07:26:42;99217.66;;;8.79;70.19
46412;BME280;32113;42.012;24.870;2023-03-03T07:29:24;99225.34;;;8.78;70.94
46412;BME280;32113;42.012;24.870;2023-03-03T07:31:55;99213.41;;;8.80;70.94
46412;BME280;32113;42.012;24.870;2023-03-03T07:36:57;99220.22;;;8.87;70.94
46412;BME280;32113;42.012;24.870;2023-03-03T07:39:37;99216.81;;;8.80;70.57
46412;BME280;32113;42.012;24.870;2023-03-03T07:42:20;99207.44;;;8.86;69.93
46412;BME280;32113;42.012;24.870;2023-03-03T07:44:49;99214.25;;;8.91;68.89
46412;BME280;32113;42.012;24.870;2023-03-03T07:49:45;99216.81;;;8.85;68.98
46412;BME280;32113;42.012;24.870;2023-03-03T07:54:52;99214.25;;;8.93;70.62
46412;BME280;32113;42.012;24.870;2023-03-03T07:59:49;99205.69;;;9.03;70.72
46412;BME280;32113;42.012;24.870;2023-03-03T08:03:01;99198.88;;;9.07;70.51
46412;BME280;32113;42.012;24.870;2023-03-03T08:05:00;99198.03;;;9.10;70.79
46412;BME280;32113;42.012;24.870;2023-03-03T08:07:29;99196.31;;;9.13;70.51
46412;BME280;32113;42.012;24.870;2023-03-03T08:09:57;99195.44;;;9.17;70.03
46412;BME280;32113;42.012;24.870;2023-03-03T08:14:53;99192.03;;;9.20;67.72
46412;BME280;32113;42.012;24.870;2023-03-03T08:17:21;99185.22;;;9.19;66.57
46412;BME280;32113;42.012;24.870;2023-03-03T08:19:48;99181.78;;;9.20;68.06
46412;BME280;32113;42.012;24.870;2023-03-03T08:22:17;99186.03;;;9.23;68.40
46412;BME280;32113;42.012;24.870;2023-03-03T08:24:43;99178.38;;;9.24;68.74
46412;BME280;32113;42.012;24.870;2023-03-03T08:27:09;99175.81;;;9.26;68.88
46412;BME280;32113;42.012;24.870;2023-03-03T08:29:34;99177.50;;;9.28;67.54
46412;BME280;32113;42.012;24.870;2023-03-03T08:32:00;99173.22;;;9.27;67.64
46412;BME280;32113;42.012;24.870;2023-03-03T08:34:25;99169.78;;;9.30;67.44
46412;BME280;32113;42.012;24.870;2023-03-03T08:36:51;99168.94;;;9.34;66.98
46412;BME280;32113;42.012;24.870;2023-03-03T08:39:16;99167.22;;;9.30;66.86
46412;BME280;32113;42.012;24.870;2023-03-03T08:41:41;99164.69;;;9.24;67.48
46412;BME280;32113;42.012;24.870;2023-03-03T08:44:09;99162.13;;;9.25;67.07
46412;BME280;32113;42.012;24.870;2023-03-03T08:46:35;99158.75;;;9.22;67.18
46412;BME280;32113;42.012;24.870;2023-03-03T08:49:01;99159.59;;;9.17;67.98
46412;BME280;32113;42.012;24.870;2023-03-03T08:51:26;99161.31;;;9.22;67.54
46412;BME280;32113;42.012;24.870;2023-03-03T08:53:52;99161.28;;;9.23;66.72
46412;BME280;32113;42.012;24.870;2023-03-03T08:56:17;99162.16;;;9.19;67.05
46412;BME280;32113;42.012;24.870;2023-03-03T08:58:43;99166.38;;;9.23;66.88
46412;BME280;32113;42.012;24.870;2023-03-03T09:01:15;99172.38;;;9.25;67.57
46412;BME280;32113;42.012;24.870;2023-03-03T09:03:41;99165.56;;;9.23;67.24
46412;BME280;32113;42.012;24.870;2023-03-03T09:06:07;99170.69;;;9.23;67.45
46412;BME280;32113;42.012;24.870;2023-03-03T09:08:33;99167.28;;;9.19;67.36
46412;BME280;32113;42.012;24.870;2023-03-03T09:10:58;99167.25;;;9.24;67.91
46412;BME280;32113;42.012;24.870;2023-03-03T09:13:24;99168.94;;;9.25;68.47
46412;BME280;32113;42.012;24.870;2023-03-03T09:15:51;99160.47;;;9.16;67.35
46412;BME280;32113;42.012;24.870;2023-03-03T09:18:19;99168.13;;;9.26;68.60
46412;BME280;32113;42.012;24.870;2023-03-03T09:20:48;99165.56;;;9.26;68.69
46412;BME280;32113;42.012;24.870;2023-03-03T09:23:47;99160.41;;;9.32;69.03
46412;BME280;32113;42.012;24.870;2023-03-03T09:31:50;99146.72;;;9.45;66.61
46412;BME280;32113;42.012;24.870;2023-03-03T09:36:44;99146.63;;;9.58;66.25
46412;BME280;32113;42.012;24.870;2023-03-03T09:39:22;99148.34;;;9.59;64.55
46412;BME280;32113;42.012;24.870;2023-03-03T09:42:19;99146.63;;;9.64;64.14
46412;BME280;32113;42.012;24.870;2023-03-03T09:45:10;99139.75;;;9.68;63.04
46412;BME280;32113;42.012;24.870;2023-03-03T09:50:29;99144.03;;;9.69;62.27
46412;BME280;32113;42.012;24.870;2023-03-03T10:06:50;99144.09;;;9.55;62.73
46412;BME280;32113;42.012;24.870;2023-03-03T10:15:38;99138.16;;;9.45;63.12
46412;BME280;32113;42.012;24.870;2023-03-03T10:26:37;99125.34;;;9.42;63.96
46412;BME280;32113;42.012;24.870;2023-03-03T10:29:24;99123.63;;;9.53;64.45
46412;BME280;32113;42.012;24.870;2023-03-03T10:45:34;99102.84;;;10.00;60.18
46412;BME280;32113;42.012;24.870;2023-03-03T10:56:40;99082.13;;;10.25;61.62
46412;BME280;32113;42.012;24.870;2023-03-03T11:01:56;99076.94;;;10.31;60.70
46412;BME280;32113;42.012;24.870;2023-03-03T11:15:21;99071.13;;;10.15;60.19
46412;BME280;32113;42.012;24.870;2023-03-03T11:18:01;99063.44;;;10.09;59.24
46412;BME280;32113;42.012;24.870;2023-03-03T11:25:49;99050.56;;;10.18;61.85
46412;BME280;32113;42.012;24.870;2023-03-03T11:28:28;99051.41;;;10.20;62.08
46412;BME280;32113;42.012;24.870;2023-03-03T11:36:43;99055.66;;;10.24;60.96
46412;BME280;32113;42.012;24.870;2023-03-03T11:39:19;99054.78;;;10.27;62.41
46412;BME280;32113;42.012;24.870;2023-03-03T11:42:10;99049.66;;;10.27;61.28
46412;BME280;32113;42.012;24.870;2023-03-03T11:44:45;99045.34;;;10.26;61.15
46412;BME280;32113;42.012;24.870;2023-03-03T11:47:26;99039.41;;;10.24;61.25
46412;BME280;32113;42.012;24.870;2023-03-03T11:50:19;99036.03;;;10.17;62.94
46412;BME280;32113;42.012;24.870;2023-03-03T11:55:37;99028.28;;;10.25;62.57
46412;BME280;32113;42.012;24.870;2023-03-03T11:58:23;99031.63;;;10.33;62.43
46412;BME280;32113;42.012;24.870;2023-03-03T12:22:05;99011.13;;;10.33;62.49
46412;BME280;32113;42.012;24.870;2023-03-03T12:40:45;99005.63;;;10.69;61.56
46412;BME280;32113;42.012;24.870;2023-03-03T12:48:45;99013.94;;;10.90;60.24
46412;BME280;32113;42.012;24.870;2023-03-03T12:56:17;99007.09;;;10.89;60.88
46412;BME280;32113;42.012;24.870;2023-03-03T12:59:08;99001.16;;;10.87;61.55
46412;BME280;32113;42.012;24.870;2023-03-03T13:01:55;99001.06;;;10.91;61.37
46412;BME280;32113;42.012;24.870;2023-03-03T13:12:44;99003.63;;;10.93;61.01
46412;BME280;32113;42.012;24.870;2023-03-03T13:15:23;99004.59;;;10.86;61.31
46412;BME280;32113;42.012;24.870;2023-03-03T13:18:18;99002.94;;;10.82;61.20
46412;BME280;32113;42.012;24.870;2023-03-03T13:26:17;98998.81;;;10.68;61.18
46412;BME280;32113;42.012;24.870;2023-03-03T13:29:08;99001.41;;;10.65;61.75
46412;BME280;32113;42.012;24.870;2023-03-03T13:31:46;99003.09;;;10.66;61.79
46412;BME280;32113;42.012;24.870;2023-03-03T13:37:12;98998.81;;;10.67;61.43
46412;BME280;32113;42.012;24.870;2023-03-03T13:42:37;98992.81;;;10.66;61.92
46412;BME280;32113;42.012;24.870;2023-03-03T13:54:05;98995.47;;;10.61;61.44
46412;BME280;32113;42.012;24.870;2023-03-03T14:05:25;98990.44;;;10.52;62.50
46412;BME280;32113;42.012;24.870;2023-03-03T14:08:05;98988.78;;;10.46;62.39
46412;BME280;32113;42.012;24.870;2023-03-03T14:10:40;98989.66;;;10.44;62.63
46412;BME280;32113;42.012;24.870;2023-03-03T14:13:10;98990.44;;;10.52;62.17
46412;BME280;32113;42.012;24.870;2023-03-03T14:15:54;98991.31;;;10.49;61.66
46412;BME280;32113;42.012;24.870;2023-03-03T14:18:36;98986.19;;;10.48;61.75
46412;BME280;32113;42.012;24.870;2023-03-03T14:21:18;98986.28;;;10.37;62.47
46412;BME280;32113;42.012;24.870;2023-03-03T14:26:29;98987.94;;;10.46;62.70
46412;BME280;32113;42.012;24.870;2023-03-03T14:29:18;98984.53;;;10.44;62.49
46412;BME280;32113;42.012;24.870;2023-03-03T14:31:44;98986.22;;;10.45;62.37
46412;BME280;32113;42.012;24.870;2023-03-03T14:36:37;98982.75;;;10.49;60.46
46412;BME280;32113;42.012;24.870;2023-03-03T14:39:33;98975.94;;;10.46;60.74
46412;BME280;32113;42.012;24.870;2023-03-03T14:42:00;98978.50;;;10.49;60.76
46412;BME280;32113;42.012;24.870;2023-03-03T14:44:34;98974.22;;;10.48;61.28
46412;BME280;32113;42.012;24.870;2023-03-03T14:49:36;98971.69;;;10.44;62.50
46412;BME280;32113;42.012;24.870;2023-03-03T14:52:17;98970.00;;;10.44;62.33
46412;BME280;32113;42.012;24.870;2023-03-03T14:54:48;98970.00;;;10.44;61.20
46412;BME280;32113;42.012;24.870;2023-03-03T14:57:16;98970.81;;;10.45;61.13
46412;BME280;32113;42.012;24.870;2023-03-03T15:00:26;98973.34;;;10.49;60.79
46412;BME280;32113;42.012;24.870;2023-03-03T15:03:21;98979.38;;;10.47;60.57
46412;BME280;32113;42.012;24.870;2023-03-03T15:05:49;98974.31;;;10.37;61.26
46412;BME280;32113;42.012;24.870;2023-03-03T15:08:32;98970.94;;;10.32;61.10
46412;BME280;32113;42.012;24.870;2023-03-03T15:13:42;98965.91;;;10.24;62.57
46412;BME280;32113;42.012;24.870;2023-03-03T15:16:15;98959.84;;;10.32;62.21
46412;BME280;32113;42.012;24.870;2023-03-03T15:21:28;98969.28;;;10.30;61.05
46412;BME280;32113;42.012;24.870;2023-03-03T15:24:03;98966.72;;;10.28;61.84
46412;BME280;32113;42.012;24.870;2023-03-03T15:32:24;98971.88;;;10.23;61.46
46412;BME280;32113;42.012;24.870;2023-03-03T15:40:34;98980.47;;;10.19;61.24
46412;BME280;32113;42.012;24.870;2023-03-03T15:52:29;98979.72;;;10.09;63.06
46412;BME280;32113;42.012;24.870;2023-03-03T15:57:54;98983.97;;;10.12;62.14
46412;BME280;32113;42.012;24.870;2023-03-03T16:03:34;98988.47;;;9.85;63.74
46412;BME280;32113;42.012;24.870;2023-03-03T16:09:00;99002.97;;;9.88;65.23
46412;BME280;32113;42.012;24.870;2023-03-03T16:11:33;99011.53;;;9.85;65.18
46412;BME280;32113;42.012;24.870;2023-03-03T16:16:52;99024.28;;;9.93;65.71
46412;BME280;32113;42.012;24.870;2023-03-03T16:20:20;99019.13;;;9.97;65.39
46412;BME280;32113;42.012;24.870;2023-03-03T16:26:02;99026.78;;;10.01;65.24
46412;BME280;32113;42.012;24.870;2023-03-03T16:28:09;99028.47;;;10.03;65.52
46412;BME280;32113;42.012;24.870;2023-03-03T16:33:36;99037.00;;;10.04;65.12
46412;BME280;32113;42.012;24.870;2023-03-03T16:38:43;99032.78;;;9.99;65.23
46412;BME280;32113;42.012;24.870;2023-03-03T16:41:18;99031.94;;;9.97;64.52
46412;BME280;32113;42.012;24.870;2023-03-03T16:46:44;99038.78;;;9.94;64.76
46412;BME280;32113;42.012;24.870;2023-03-03T16:51:54;99045.63;;;9.95;65.63
46412;BME280;32113;42.012;24.870;2023-03-03T16:57:09;99049.97;;;9.83;66.29
46412;BME280;32113;42.012;24.870;2023-03-03T17:10:54;99067.09;;;9.77;66.99
46412;BME280;32113;42.012;24.870;2023-03-03T17:18:44;99057.66;;;9.83;66.30
46412;BME280;32113;42.012;24.870;2023-03-03T17:23:51;99074.84;;;9.69;67.12
46412;BME280;32113;42.012;24.870;2023-03-03T17:42:50;99093.03;;;9.13;71.48
46412;BME280;32113;42.012;24.870;2023-03-03T17:45:19;99101.63;;;9.01;71.85
46412;BME280;32113;42.012;24.870;2023-03-03T17:48:15;99106.78;;;8.82;72.87
46412;BME280;32113;42.012;24.870;2023-03-03T17:51:08;99108.53;;;8.66;73.75
46412;BME280;32113;42.012;24.870;2023-03-03T17:54:10;99108.53;;;8.33;75.37
46412;BME280;32113;42.012;24.870;2023-03-03T17:56:48;99106.00;;;8.27;76.09
46412;BME280;32113;42.012;24.870;2023-03-03T17:59:28;99111.09;;;8.27;76.51
46412;BME280;32113;42.012;24.870;2023-03-03T18:26:49;99105.97;;;8.71;72.04
46412;BME280;32113;42.012;24.870;2023-03-03T18:42:39;99121.22;;;9.13;71.09
46412;BME280;32113;42.012;24.870;2023-03-03T18:48:11;99121.25;;;8.94;71.52
46412;BME280;32113;42.012;24.870;2023-03-03T18:50:47;99125.50;;;9.00;71.71
46412;BME280;32113;42.012;24.870;2023-03-03T18:53:27;99130.59;;;9.06;71.09
46412;BME280;32113;42.012;24.870;2023-03-03T18:55:58;99121.25;;;8.99;70.94
46412;BME280;32113;42.012;24.870;2023-03-03T18:58:42;99128.94;;;8.99;71.70
46412;BME280;32113;42.012;24.870;2023-03-03T19:09:48;99131.50;;;8.99;71.92